createdAt,value
2018-11-13T00:00:24.646Z,11.33
2018-11-13T00:02:53.657Z,12.70
2018-11-13T00:05:22.726Z,10.90
2018-11-13T00:07:51.198Z,10.60
2018-11-13T00:10:19.574Z,9.73
2018-11-13T00:12:48.007Z,10.93
2018-11-13T00:15:16.394Z,12.07
2018-11-13T00:17:44.802Z,12.37
2018-11-13T00:20:14.320Z,12.13
2018-11-13T00:22:43.334Z,14.50
2018-11-13T00:25:12.832Z,18.67
2018-11-13T00:27:42.068Z,15.57
2018-11-13T00:30:14.073Z,15.77
2018-11-13T00:32:43.005Z,17.60
2018-11-13T00:35:12.202Z,16.67
2018-11-13T00:37:40.545Z,15.03
2018-11-13T00:40:10.007Z,14.23
2018-11-13T00:42:38.718Z,13.67
2018-11-13T00:45:07.603Z,14.07
2018-11-13T00:47:35.981Z,11.83
2018-11-13T00:50:04.733Z,9.20
2018-11-13T00:52:33.186Z,9.43
2018-11-13T00:55:01.765Z,7.80
2018-11-13T00:57:30.030Z,8.00
2018-11-13T00:59:58.439Z,8.80
2018-11-13T01:02:26.926Z,8.33
2018-11-13T01:04:55.560Z,7.40
2018-11-13T01:07:23.879Z,8.20
2018-11-13T01:09:52.232Z,7.87
2018-11-13T01:12:20.712Z,8.17
2018-11-13T01:14:49.083Z,7.70
2018-11-13T01:17:17.560Z,6.90
2018-11-13T01:19:45.900Z,7.83
2018-11-13T01:22:14.290Z,7.10
2018-11-13T01:24:42.719Z,7.30
2018-11-13T01:27:11.069Z,7.20
2018-11-13T01:29:39.519Z,7.70
2018-11-13T01:32:07.972Z,12.47
2018-11-13T01:34:36.363Z,24.53
2018-11-13T01:37:04.855Z,28.50
2018-11-13T01:39:33.283Z,31.87
2018-11-13T01:42:01.656Z,36.70
2018-11-13T01:44:34.107Z,37.60
2018-11-13T01:47:02.503Z,34.63
2018-11-13T01:49:30.925Z,30.13
2018-11-13T01:51:59.310Z,16.70
2018-11-13T01:54:27.788Z,12.30
2018-11-13T01:56:56.119Z,10.43
2018-11-13T01:59:24.575Z,8.10
2018-11-13T02:01:52.983Z,7.23
2018-11-13T02:04:21.386Z,7.87
2018-11-13T02:06:49.789Z,7.73
2018-11-13T02:09:18.209Z,8.27
2018-11-13T02:11:46.589Z,8.57
2018-11-13T02:14:15.002Z,8.60
2018-11-13T02:16:43.401Z,8.40
2018-11-13T02:19:11.793Z,9.43
2018-11-13T02:21:40.209Z,8.63
2018-11-13T02:24:08.650Z,8.13
2018-11-13T02:26:37.068Z,7.90
2018-11-13T02:29:06.029Z,7.80
2018-11-13T02:31:34.428Z,7.67
2018-11-13T02:34:02.843Z,7.33
2018-11-13T02:36:31.446Z,6.77
2018-11-13T02:38:59.881Z,7.33
2018-11-13T02:41:28.247Z,7.07
2018-11-13T02:43:56.618Z,7.00
2018-11-13T02:46:25.028Z,7.00
2018-11-13T02:48:55.773Z,6.37
2018-11-13T02:51:24.236Z,7.27
2018-11-13T02:53:52.625Z,6.93
2018-11-13T02:56:21.022Z,6.93
2018-11-13T02:58:49.436Z,7.10
2018-11-13T03:01:17.863Z,7.67
2018-11-13T03:03:46.271Z,7.97
2018-11-13T03:06:14.683Z,9.97
2018-11-13T03:08:43.070Z,11.00
2018-11-13T03:11:11.715Z,13.10
2018-11-13T03:13:40.177Z,16.77
2018-11-13T03:16:08.524Z,16.73
2018-11-13T03:18:37.231Z,15.20
2018-11-13T03:21:05.870Z,15.03
2018-11-13T03:23:34.260Z,20.53
2018-11-13T03:26:02.703Z,26.77
2018-11-13T03:28:31.120Z,24.80
2018-11-13T03:30:59.565Z,25.50
2018-11-13T03:33:27.950Z,20.17
2018-11-13T03:35:56.406Z,17.50
2018-11-13T03:38:24.832Z,11.33
2018-11-13T03:41:24.442Z,8.77
2018-11-13T03:43:54.006Z,8.50
2018-11-13T03:46:22.410Z,7.97
2018-11-13T03:48:50.798Z,8.50
2018-11-13T03:51:19.207Z,7.50
2018-11-13T03:53:47.590Z,7.67
2018-11-13T03:56:15.981Z,7.20
2018-11-13T03:58:44.370Z,6.90
2018-11-13T04:01:12.751Z,6.80
2018-11-13T04:03:41.125Z,7.20
2018-11-13T04:06:09.561Z,8.80
2018-11-13T04:08:37.932Z,14.80
2018-11-13T04:11:06.567Z,21.10
2018-11-13T04:13:34.927Z,25.53
2018-11-13T04:16:03.345Z,31.23
2018-11-13T04:18:31.743Z,35.60
2018-11-13T04:21:00.116Z,35.73
2018-11-13T04:23:28.479Z,31.17
2018-11-13T04:25:56.878Z,22.27
2018-11-13T04:28:25.226Z,25.17
2018-11-13T04:30:53.725Z,18.03
2018-11-13T04:33:22.002Z,16.80
2018-11-13T04:35:50.361Z,18.17
2018-11-13T04:38:18.743Z,17.87
2018-11-13T04:40:47.131Z,16.10
2018-11-13T04:43:15.496Z,15.40
2018-11-13T04:45:43.886Z,14.03
2018-11-13T04:48:12.239Z,15.03
2018-11-13T04:50:40.671Z,15.73
2018-11-13T04:53:09.014Z,31.17
2018-11-13T04:55:37.822Z,50.40
2018-11-13T04:58:06.226Z,42.40
2018-11-13T05:00:34.606Z,45.03
2018-11-13T05:03:02.979Z,27.20
2018-11-13T05:05:31.353Z,12.50
2018-11-13T05:07:59.706Z,13.67
2018-11-13T05:10:28.102Z,13.63
2018-11-13T05:12:56.466Z,17.57
2018-11-13T05:15:24.938Z,18.17
2018-11-13T05:17:53.342Z,15.50
2018-11-13T05:20:21.730Z,9.40
2018-11-13T05:22:50.085Z,5.70
2018-11-13T05:25:19.587Z,5.70
2018-11-13T05:27:48.153Z,6.73
2018-11-13T05:30:18.812Z,11.03
2018-11-13T05:32:47.236Z,15.93
2018-11-13T05:35:16.695Z,21.73
2018-11-13T05:37:45.565Z,27.03
2018-11-13T05:40:15.962Z,33.53
2018-11-13T05:42:44.331Z,31.27
2018-11-13T05:45:14.000Z,28.70
2018-11-13T05:47:42.381Z,45.30
2018-11-13T05:50:12.350Z,46.87
2018-11-13T05:52:41.691Z,37.33
2018-11-13T05:55:10.559Z,40.13
2018-11-13T05:57:38.959Z,41.17
2018-11-13T06:00:10.732Z,34.83
2018-11-13T06:02:39.210Z,23.67
2018-11-13T06:05:07.646Z,15.83
2018-11-13T06:07:36.115Z,13.00
2018-11-13T06:10:04.775Z,11.63
2018-11-13T06:12:33.183Z,10.10
2018-11-13T06:15:01.577Z,9.03
2018-11-13T06:17:30.063Z,8.47
2018-11-13T06:19:58.521Z,7.40
2018-11-13T06:22:26.913Z,6.73
2018-11-13T06:24:55.654Z,7.23
2018-11-13T06:27:24.078Z,8.40
2018-11-13T06:29:52.451Z,10.97
2018-11-13T06:32:20.861Z,14.27
2018-11-13T06:34:49.222Z,21.97
2018-11-13T06:37:17.630Z,29.20
2018-11-13T06:39:46.008Z,36.13
2018-11-13T06:42:14.390Z,41.60
2018-11-13T06:44:42.765Z,37.57
2018-11-13T06:47:11.154Z,41.63
2018-11-13T06:49:39.557Z,30.20
2018-11-13T06:52:07.939Z,20.13
2018-11-13T06:55:44.171Z,7.60
2018-11-13T06:58:12.655Z,3.07
2018-11-13T07:00:41.054Z,2.80
2018-11-13T07:03:09.503Z,2.43
2018-11-13T07:05:37.915Z,2.37
2018-11-13T07:08:06.322Z,2.50
2018-11-13T07:10:34.720Z,2.30
2018-11-13T07:13:03.090Z,2.23
2018-11-13T07:15:32.131Z,2.13
2018-11-13T07:18:02.071Z,2.70
2018-11-13T07:20:31.778Z,2.07
2018-11-13T07:23:00.273Z,2.27
2018-11-13T07:25:28.755Z,1.80
2018-11-13T07:27:57.196Z,1.90
2018-11-13T07:30:26.307Z,2.33
2018-11-13T07:32:54.666Z,2.00
2018-11-13T07:35:23.488Z,2.10
2018-11-13T07:37:53.498Z,2.23
2018-11-13T07:40:22.161Z,2.20
2018-11-13T07:42:50.600Z,2.70
2018-11-13T07:45:19.194Z,2.20
2018-11-13T07:47:47.995Z,1.93
2018-11-13T07:50:16.526Z,2.00
2018-11-13T07:52:44.940Z,2.10
2018-11-13T07:55:14.287Z,2.57
2018-11-13T07:57:42.666Z,2.50
2018-11-13T08:00:15.035Z,2.43
2018-11-13T08:02:44.522Z,2.53
2018-11-13T08:05:12.967Z,2.70
2018-11-13T08:07:41.351Z,2.80
2018-11-13T08:10:10.811Z,3.10
2018-11-13T08:12:39.383Z,5.60
2018-11-13T08:15:10.942Z,6.83
2018-11-13T08:17:39.525Z,9.33
2018-11-13T08:20:09.561Z,8.60
2018-11-13T08:22:37.967Z,6.33
2018-11-13T08:25:08.029Z,8.80
2018-11-13T08:27:37.171Z,21.53
2018-11-13T08:30:08.964Z,14.43
2018-11-13T08:32:37.440Z,10.70
2018-11-13T08:35:07.148Z,5.83
2018-11-13T08:37:35.402Z,5.83
2018-11-13T08:40:03.959Z,4.03
2018-11-13T08:42:32.431Z,3.70
2018-11-13T08:45:00.837Z,2.00
2018-11-13T08:47:29.286Z,2.70
2018-11-13T08:49:57.647Z,2.67
2018-11-13T08:52:26.060Z,2.40
2018-11-13T08:54:54.463Z,2.77
2018-11-13T08:57:22.852Z,2.10
2018-11-13T08:59:53.691Z,2.10
2018-11-13T09:02:22.109Z,2.80
2018-11-13T09:04:50.556Z,2.40
2018-11-13T09:07:18.910Z,3.40
2018-11-13T09:09:47.267Z,2.37
2018-11-13T09:12:15.861Z,1.90
2018-11-13T09:14:44.212Z,1.97
2018-11-13T09:17:12.607Z,2.37
2018-11-13T09:19:40.967Z,2.33
2018-11-13T09:22:09.994Z,2.87
2018-11-13T09:24:38.358Z,1.87
2018-11-13T09:27:06.734Z,1.63
2018-11-13T09:29:35.225Z,1.80
2018-11-13T09:32:03.669Z,2.00
2018-11-13T09:34:32.001Z,1.80
2018-11-13T09:37:00.373Z,1.50
2018-11-13T09:39:29.234Z,1.63
2018-11-13T09:41:58.218Z,1.20
2018-11-13T09:44:26.595Z,1.27
2018-11-13T09:46:55.022Z,1.40
2018-11-13T09:49:23.425Z,1.10
2018-11-13T09:51:51.931Z,1.80
2018-11-13T09:54:20.340Z,1.57
2018-11-13T09:56:48.714Z,3.57
2018-11-13T09:59:17.154Z,1.70
2018-11-13T10:01:46.136Z,1.20
2018-11-13T10:04:14.644Z,1.40
2018-11-13T10:06:42.619Z,1.27
2018-11-13T10:09:12.650Z,1.17
2018-11-13T10:11:42.669Z,1.40
2018-11-13T10:14:11.474Z,1.00
2018-11-13T10:16:40.414Z,1.37
2018-11-13T10:19:09.979Z,1.57
2018-11-13T10:21:38.386Z,2.37
2018-11-13T10:24:07.658Z,2.53
2018-11-13T10:26:36.253Z,2.63
2018-11-13T10:29:04.719Z,2.80
2018-11-13T10:31:33.116Z,3.13
2018-11-13T10:34:01.645Z,3.93
2018-11-13T10:36:30.114Z,4.07
2018-11-13T10:38:58.494Z,2.97
2018-11-13T10:41:26.977Z,1.30
2018-11-13T10:43:55.395Z,1.20
2018-11-13T10:46:23.827Z,1.77
2018-11-13T10:48:52.266Z,1.43
2018-11-13T10:51:20.631Z,1.60
2018-11-13T10:53:49.075Z,0.80
2018-11-13T10:56:17.677Z,0.93
2018-11-13T10:58:46.042Z,1.07
2018-11-13T11:01:19.722Z,0.70
2018-11-13T11:03:59.418Z,0.70
2018-11-13T11:06:28.328Z,0.87
2018-11-13T11:08:56.780Z,0.90
2018-11-13T11:11:25.185Z,0.90
2018-11-13T11:13:53.838Z,0.80
2018-11-13T11:16:22.220Z,0.80
2018-11-13T11:18:50.838Z,0.90
2018-11-13T11:21:19.180Z,1.20
2018-11-13T11:23:47.677Z,1.00
2018-11-13T11:26:16.043Z,1.00
2018-11-13T11:28:44.509Z,0.80
2018-11-13T11:31:12.940Z,0.70
2018-11-13T11:33:41.412Z,0.40
2018-11-13T11:36:09.758Z,0.60
2018-11-13T11:38:38.373Z,0.60
2018-11-13T11:41:06.773Z,0.77
2018-11-13T11:43:35.183Z,0.87
2018-11-13T11:46:03.543Z,0.70
2018-11-13T11:48:31.989Z,1.10
2018-11-13T11:51:00.378Z,1.40
2018-11-13T11:53:28.771Z,1.07
2018-11-13T11:55:57.132Z,1.00
2018-11-13T11:58:25.533Z,1.37
2018-11-13T12:00:53.918Z,1.10
2018-11-13T12:03:22.695Z,1.00
2018-11-13T12:05:51.176Z,1.50
2018-11-13T12:08:19.637Z,1.17
2018-11-13T12:10:48.051Z,1.00
2018-11-13T12:13:16.437Z,0.90
2018-11-13T12:15:44.819Z,1.03
2018-11-13T12:18:13.803Z,1.33
2018-11-13T12:20:42.263Z,0.90
2018-11-13T12:23:10.966Z,0.60
2018-11-13T12:25:39.473Z,0.80
2018-11-13T12:28:08.517Z,1.03
2018-11-13T12:30:37.011Z,0.70
2018-11-13T12:33:06.298Z,1.40
2018-11-13T12:35:34.922Z,1.80
2018-11-13T12:38:03.324Z,1.00
2018-11-13T12:40:31.816Z,1.17
2018-11-13T12:43:00.237Z,1.20
2018-11-13T12:45:28.822Z,0.73
2018-11-13T12:47:57.272Z,0.90
2018-11-13T12:50:30.089Z,1.40
2018-11-13T12:52:58.510Z,1.00
2018-11-13T12:55:27.011Z,1.07
2018-11-13T12:57:55.420Z,1.30
2018-11-13T13:00:25.459Z,0.87
2018-11-13T13:02:53.903Z,0.90
2018-11-13T13:05:22.603Z,1.10
2018-11-13T13:07:50.982Z,1.03
2018-11-13T13:10:20.384Z,1.80
2018-11-13T13:12:48.816Z,0.73
2018-11-13T13:15:17.842Z,0.90
2018-11-13T13:17:46.494Z,1.20
2018-11-13T13:20:17.139Z,1.07
2018-11-13T13:22:46.707Z,1.20
2018-11-13T13:25:16.342Z,1.23
2018-11-13T13:27:44.799Z,1.00
2018-11-13T13:30:15.785Z,0.83
2018-11-13T13:32:44.680Z,1.17
2018-11-13T13:35:37.226Z,1.00
2018-11-13T13:38:06.804Z,0.97
2018-11-13T13:40:35.522Z,0.90
2018-11-13T13:43:04.230Z,1.00
2018-11-13T13:45:32.884Z,0.67
2018-11-13T13:48:01.302Z,1.13
2018-11-13T13:50:29.703Z,0.80
2018-11-13T13:52:58.973Z,0.80
2018-11-13T13:55:27.399Z,0.97
2018-11-13T13:57:55.851Z,0.93
2018-11-13T14:00:24.381Z,0.87
2018-11-13T14:02:52.650Z,0.90
2018-11-13T14:05:21.885Z,1.03
2018-11-13T14:07:50.476Z,0.90
2018-11-13T14:10:18.940Z,0.77
2018-11-13T14:12:47.370Z,1.13
2018-11-13T14:15:15.779Z,1.33
2018-11-13T14:17:44.227Z,1.00
2018-11-13T14:20:15.948Z,1.03
2018-11-13T14:22:44.308Z,1.20
2018-11-13T14:25:13.229Z,1.10
2018-11-13T14:27:41.921Z,1.00
2018-11-13T14:30:16.395Z,1.10
2018-11-13T14:32:45.699Z,1.17
2018-11-13T14:35:14.216Z,1.07
2018-11-13T14:37:42.628Z,1.27
2018-11-13T14:40:19.636Z,1.23
2018-11-13T14:42:48.535Z,1.03
2018-11-13T14:45:17.723Z,1.07
2018-11-13T14:47:46.820Z,1.10
2018-11-13T14:50:16.701Z,0.93
2018-11-13T14:52:45.731Z,1.27
2018-11-13T14:55:16.713Z,1.40
2018-11-13T14:57:45.612Z,1.10
2018-11-13T15:00:17.710Z,1.30
2018-11-13T15:02:46.503Z,1.30
2018-11-13T15:05:16.243Z,1.30
2018-11-13T15:07:45.817Z,1.53
2018-11-13T15:10:17.805Z,1.43
2018-11-13T15:12:46.237Z,1.47
2018-11-13T15:15:14.670Z,1.23
2018-11-13T15:17:43.949Z,1.40
2018-11-13T15:20:15.051Z,1.80
2018-11-13T15:22:44.266Z,1.23
2018-11-13T15:25:14.624Z,1.57
2018-11-13T15:27:44.689Z,1.57
2018-11-13T15:30:17.158Z,1.30
2018-11-13T15:32:47.318Z,1.50
2018-11-13T15:35:15.687Z,1.30
2018-11-13T15:37:44.347Z,1.63
2018-11-13T15:40:15.425Z,1.13
2018-11-13T15:42:44.444Z,1.80
2018-11-13T15:45:14.037Z,1.90
2018-11-13T15:47:43.072Z,1.67
2018-11-13T15:50:15.732Z,2.13
2018-11-13T15:52:44.511Z,1.80
2018-11-13T15:55:13.486Z,1.83
2018-11-13T15:57:42.713Z,1.70
2018-11-13T16:00:31.673Z,1.97
2018-11-13T16:03:03.809Z,2.53
2018-11-13T16:05:44.318Z,1.73
2018-11-13T16:08:12.956Z,1.70
2018-11-13T16:10:41.488Z,2.00
2018-11-13T16:13:10.056Z,1.60
2018-11-13T16:15:39.114Z,1.73
2018-11-13T16:18:09.072Z,1.80
2018-11-13T16:20:37.523Z,1.60
2018-11-13T16:23:06.226Z,1.80
2018-11-13T16:25:34.600Z,1.80
2018-11-13T16:28:03.013Z,1.60
2018-11-13T16:30:32.818Z,1.60
2018-11-13T16:33:01.206Z,1.90
2018-11-13T16:35:30.232Z,1.70
2018-11-13T16:37:59.637Z,1.60
2018-11-13T16:40:29.220Z,2.10
2018-11-13T16:42:57.708Z,3.03
2018-11-13T16:45:26.762Z,2.70
2018-11-13T16:47:55.637Z,1.90
2018-11-13T16:50:27.204Z,2.80
2018-11-13T16:52:56.267Z,3.17
2018-11-13T16:55:30.112Z,4.80
2018-11-13T16:57:59.441Z,3.67
2018-11-13T17:00:27.950Z,3.67
2018-11-13T17:02:56.455Z,3.60
2018-11-13T17:05:25.682Z,4.27
2018-11-13T17:07:53.997Z,4.43
2018-11-13T17:10:26.746Z,4.07
2018-11-13T17:12:55.614Z,4.13
2018-11-13T17:15:25.306Z,3.50
2018-11-13T17:17:54.854Z,4.10
2018-11-13T17:20:23.336Z,3.63
2018-11-13T17:22:52.144Z,2.87
2018-11-13T17:25:21.929Z,3.00
2018-11-13T17:27:51.515Z,2.87
2018-11-13T17:30:23.056Z,3.07
2018-11-13T17:32:52.077Z,3.00
2018-11-13T17:35:21.787Z,2.50
2018-11-13T17:37:50.929Z,4.37
2018-11-13T17:40:21.890Z,3.60
2018-11-13T17:42:51.313Z,3.87
2018-11-13T17:45:21.842Z,5.50
2018-11-13T17:47:50.273Z,9.00
2018-11-13T17:50:21.478Z,7.93
2018-11-13T17:52:50.273Z,6.17
2018-11-13T17:55:19.223Z,3.17
2018-11-13T17:57:48.661Z,4.80
2018-11-13T18:00:26.291Z,3.10
2018-11-13T18:02:54.702Z,4.67
2018-11-13T18:05:24.449Z,4.20
2018-11-13T18:07:53.437Z,3.60
2018-11-13T18:10:22.087Z,2.90
2018-11-13T18:12:50.529Z,2.83
2018-11-13T18:15:21.963Z,3.67
2018-11-13T18:17:50.860Z,3.10
2018-11-13T18:20:25.695Z,3.47
2018-11-13T18:22:54.196Z,3.27
2018-11-13T18:25:22.665Z,4.60
2018-11-13T18:27:52.423Z,4.07
2018-11-13T18:30:23.200Z,3.03
2018-11-13T18:32:51.848Z,3.00
2018-11-13T18:35:21.535Z,3.10
2018-11-13T18:37:50.759Z,3.30
2018-11-13T18:40:19.986Z,3.47
2018-11-13T18:42:49.449Z,4.00
2018-11-13T18:45:21.335Z,3.83
2018-11-13T18:47:49.770Z,3.57
2018-11-13T18:50:20.811Z,3.53
2018-11-13T18:52:49.279Z,3.30
2018-11-13T18:55:18.022Z,3.60
2018-11-13T18:57:46.587Z,4.27
2018-11-13T19:00:18.056Z,4.43
2018-11-13T19:02:46.474Z,3.83
2018-11-13T19:05:15.679Z,4.30
2018-11-13T19:07:44.475Z,4.20
2018-11-13T19:10:16.401Z,3.53
2018-11-13T19:12:45.150Z,3.50
2018-11-13T19:15:14.802Z,4.10
2018-11-13T19:17:43.414Z,4.37
2018-11-13T19:20:14.335Z,3.03
2018-11-13T19:22:42.902Z,3.70
2018-11-13T19:25:16.707Z,3.53
2018-11-13T19:27:46.136Z,3.63
2018-11-13T19:30:15.533Z,3.97
2018-11-13T19:32:44.172Z,3.10
2018-11-13T19:35:13.211Z,3.13
2018-11-13T19:37:41.680Z,3.10
2018-11-13T19:40:14.752Z,3.50
2018-11-13T19:42:43.660Z,2.97
2018-11-13T19:45:12.161Z,2.73
2018-11-13T19:47:40.550Z,2.93
2018-11-13T19:50:11.034Z,2.90
2018-11-13T19:52:39.717Z,2.63
2018-11-13T19:55:09.130Z,3.10
2018-11-13T19:57:37.575Z,3.37
2018-11-13T20:00:08.114Z,4.13
2018-11-13T20:02:36.970Z,3.73
2018-11-13T20:05:06.482Z,4.10
2018-11-13T20:07:35.009Z,6.00
2018-11-13T20:10:03.659Z,6.13
2018-11-13T20:12:32.089Z,6.70
2018-11-13T20:15:00.506Z,11.90
2018-11-13T20:17:29.002Z,12.53
2018-11-13T20:19:57.396Z,14.30
2018-11-13T20:22:25.824Z,11.10
2018-11-13T20:24:54.188Z,8.30
2018-11-13T20:27:22.582Z,5.53
2018-11-13T20:29:51.244Z,4.83
2018-11-13T20:32:19.787Z,6.70
2018-11-13T20:34:48.166Z,6.33
2018-11-13T20:37:16.593Z,4.90
2018-11-13T20:39:45.089Z,3.90
2018-11-13T20:42:13.483Z,3.53
2018-11-13T20:44:41.916Z,3.47
2018-11-13T20:47:10.250Z,3.90
2018-11-13T20:49:38.655Z,3.60
2018-11-13T20:52:07.059Z,3.80
2018-11-13T20:54:35.498Z,3.50
2018-11-13T20:57:03.871Z,4.93
2018-11-13T20:59:32.226Z,3.60
2018-11-13T21:02:00.742Z,4.23
2018-11-13T21:04:29.415Z,4.00
2018-11-13T21:07:04.554Z,3.93
2018-11-13T21:09:32.974Z,4.43
2018-11-13T21:12:01.388Z,4.70
2018-11-13T21:14:29.802Z,3.93
2018-11-13T21:16:58.651Z,4.50
2018-11-13T21:19:26.883Z,4.97
2018-11-13T21:21:55.307Z,6.33
2018-11-13T21:24:23.937Z,6.03
2018-11-13T21:26:52.154Z,4.93
2018-11-13T21:29:20.515Z,9.70
2018-11-13T21:31:48.929Z,5.77
2018-11-13T21:34:17.342Z,4.67
2018-11-13T21:36:45.965Z,6.90
2018-11-13T21:39:14.404Z,8.47
2018-11-13T21:41:42.812Z,7.57
2018-11-13T21:44:11.240Z,8.37
2018-11-13T21:46:39.640Z,8.10
2018-11-13T21:49:08.124Z,9.80
2018-11-13T21:51:37.686Z,7.20
2018-11-13T21:54:06.518Z,5.40
2018-11-13T21:56:34.880Z,6.57
2018-11-13T21:59:03.306Z,7.07
2018-11-13T22:01:31.763Z,8.23
2018-11-13T22:04:00.092Z,6.33
2018-11-13T22:06:28.648Z,7.63
2018-11-13T22:08:57.021Z,7.63
2018-11-13T22:11:25.382Z,6.80
2018-11-13T22:13:53.766Z,9.63
2018-11-13T22:16:22.178Z,12.53
2018-11-13T22:18:51.613Z,11.23
2018-11-13T22:21:20.141Z,8.77
2018-11-13T22:23:48.508Z,8.30
2018-11-13T22:26:16.890Z,7.03
2018-11-13T22:28:45.476Z,6.50
2018-11-13T22:31:13.817Z,6.43
2018-11-13T22:33:42.277Z,7.60
2018-11-13T22:36:10.696Z,16.97
2018-11-13T22:38:39.139Z,11.00
2018-11-13T22:41:07.592Z,11.23
2018-11-13T22:43:36.006Z,8.90
2018-11-13T22:46:04.659Z,8.80
2018-11-13T22:48:33.132Z,7.93
2018-11-13T22:51:01.637Z,7.47
2018-11-13T22:53:30.014Z,7.67
2018-11-13T22:55:58.378Z,14.70
2018-11-13T22:58:26.794Z,10.37
2018-11-13T23:00:55.415Z,9.53
2018-11-13T23:03:23.932Z,12.43
2018-11-13T23:05:52.412Z,14.13
2018-11-13T23:08:21.567Z,10.23
2018-11-13T23:10:50.746Z,9.33
2018-11-13T23:13:19.208Z,9.17
2018-11-13T23:15:47.660Z,8.73
2018-11-13T23:18:16.068Z,7.77
2018-11-13T23:20:44.627Z,9.57
2018-11-13T23:23:13.098Z,9.60
2018-11-13T23:25:41.617Z,14.80
2018-11-13T23:28:10.089Z,12.33
2018-11-13T23:30:38.636Z,19.10
2018-11-13T23:33:07.650Z,11.57
2018-11-13T23:35:35.503Z,12.83
2018-11-13T23:38:04.204Z,10.47
2018-11-13T23:40:32.555Z,15.50
2018-11-13T23:43:00.906Z,12.17
2018-11-13T23:45:29.475Z,10.50
2018-11-13T23:47:57.838Z,9.80
2018-11-13T23:50:26.820Z,22.63
2018-11-13T23:52:54.996Z,15.90
2018-11-13T23:55:23.639Z,20.17
2018-11-13T23:57:52.251Z,12.73
